< < Back
Terminal Aerodrome Forecast


Current Version              Previous Versions:   1  2  3  4  5  6  7  8  9  

Terminal Aerodrome Forecast

866
FTUS42 KGSP 291100
TAFHKY
TAF
KHKY 291131Z 2912/3012 32004KT P6SM SCT250
     FM291600 33004KT P6SM SCT060=



Latest METAR

243
SAUS70 KWBC 300900 RRL
MTRHKY
METAR KHKY 300853Z AUTO 00000KT 10SM FEW065 16/13 A3006 RMK AO2 SLP159
T01560133 53003


USA.gov is the U.S. government's official web portal to all federal, state and local government web resources and services.